sensor_id;sensor_type;location;lat;lon;timestamp;P1;durP1;ratioP1;P2;durP2;ratioP2
75746;SDS011;64363;52.198;21.020;2023-02-11T00:03:47;59.33;;;23.67;;
75746;SDS011;64363;52.198;21.020;2023-02-11T00:06:13;63.33;;;23.65;;
75746;SDS011;64363;52.198;21.020;2023-02-11T00:08:39;57.00;;;23.92;;
75746;SDS011;64363;52.198;21.020;2023-02-11T00:11:05;60.03;;;22.67;;
75746;SDS011;64363;52.198;21.020;2023-02-11T00:13:31;65.68;;;22.33;;
75746;SDS011;64363;52.198;21.020;2023-02-11T00:15:56;50.85;;;22.17;;
75746;SDS011;64363;52.198;21.020;2023-02-11T00:18:22;59.40;;;23.67;;
75746;SDS011;64363;52.198;21.020;2023-02-11T00:20:48;66.07;;;21.80;;
75746;SDS011;64363;52.198;21.020;2023-02-11T00:23:14;57.65;;;20.95;;
75746;SDS011;64363;52.198;21.020;2023-02-11T00:25:40;53.65;;;22.52;;
75746;SDS011;64363;52.198;21.020;2023-02-11T00:28:07;51.28;;;20.50;;
75746;SDS011;64363;52.198;21.020;2023-02-11T00:30:34;53.05;;;19.45;;
75746;SDS011;64363;52.198;21.020;2023-02-11T00:32:59;59.08;;;20.60;;
75746;SDS011;64363;52.198;21.020;2023-02-11T00:35:25;54.25;;;20.85;;
75746;SDS011;64363;52.198;21.020;2023-02-11T00:37:54;56.97;;;19.85;;
75746;SDS011;64363;52.198;21.020;2023-02-11T00:40:20;47.28;;;18.17;;
75746;SDS011;64363;52.198;21.020;2023-02-11T00:42:46;49.95;;;19.13;;
75746;SDS011;64363;52.198;21.020;2023-02-11T00:45:12;52.13;;;19.08;;
75746;SDS011;64363;52.198;21.020;2023-02-11T00:47:38;51.28;;;18.38;;
75746;SDS011;64363;52.198;21.020;2023-02-11T08:21:06;75.82;;;30.92;;
75746;SDS011;64363;52.198;21.020;2023-02-11T08:23:37;75.10;;;29.90;;
75746;SDS011;64363;52.198;21.020;2023-02-11T08:26:05;85.93;;;32.35;;
75746;SDS011;64363;52.198;21.020;2023-02-11T08:28:40;81.82;;;31.92;;
75746;SDS011;64363;52.198;21.020;2023-02-11T08:31:11;80.68;;;33.15;;
75746;SDS011;64363;52.198;21.020;2023-02-11T08:33:39;85.28;;;32.72;;
75746;SDS011;64363;52.198;21.020;2023-02-11T08:36:09;82.07;;;33.08;;
75746;SDS011;64363;52.198;21.020;2023-02-11T08:38:36;79.75;;;30.02;;
75746;SDS011;64363;52.198;21.020;2023-02-11T08:41:02;90.95;;;35.78;;
75746;SDS011;64363;52.198;21.020;2023-02-11T08:43:28;85.10;;;33.20;;
75746;SDS011;64363;52.198;21.020;2023-02-11T08:45:54;87.05;;;34.38;;
75746;SDS011;64363;52.198;21.020;2023-02-11T08:48:20;88.25;;;30.83;;
75746;SDS011;64363;52.198;21.020;2023-02-11T08:50:45;90.88;;;36.67;;
75746;SDS011;64363;52.198;21.020;2023-02-11T08:53:11;98.07;;;36.60;;
75746;SDS011;64363;52.198;21.020;2023-02-11T08:55:37;82.82;;;33.20;;
75746;SDS011;64363;52.198;21.020;2023-02-11T08:58:03;78.47;;;31.98;;
75746;SDS011;64363;52.198;21.020;2023-02-11T09:00:29;79.90;;;31.55;;
75746;SDS011;64363;52.198;21.020;2023-02-11T09:02:56;82.18;;;34.03;;
75746;SDS011;64363;52.198;21.020;2023-02-11T09:05:21;76.00;;;29.48;;
75746;SDS011;64363;52.198;21.020;2023-02-11T09:07:47;85.88;;;32.60;;
75746;SDS011;64363;52.198;21.020;2023-02-11T09:10:13;80.88;;;33.90;;
75746;SDS011;64363;52.198;21.020;2023-02-11T09:12:39;80.03;;;31.02;;
75746;SDS011;64363;52.198;21.020;2023-02-11T09:15:04;78.35;;;31.02;;
75746;SDS011;64363;52.198;21.020;2023-02-11T09:17:31;79.35;;;31.85;;
75746;SDS011;64363;52.198;21.020;2023-02-11T09:19:56;81.10;;;31.23;;
75746;SDS011;64363;52.198;21.020;2023-02-11T09:22:22;80.70;;;33.35;;
75746;SDS011;64363;52.198;21.020;2023-02-11T09:24:48;80.57;;;29.52;;
75746;SDS011;64363;52.198;21.020;2023-02-11T09:27:13;82.10;;;31.25;;
75746;SDS011;64363;52.198;21.020;2023-02-11T09:29:39;73.18;;;29.02;;
75746;SDS011;64363;52.198;21.020;2023-02-11T09:32:05;78.47;;;28.98;;
75746;SDS011;64363;52.198;21.020;2023-02-11T09:34:30;80.25;;;32.75;;
75746;SDS011;64363;52.198;21.020;2023-02-11T09:36:56;83.72;;;34.67;;
75746;SDS011;64363;52.198;21.020;2023-02-11T09:39:22;70.40;;;28.83;;
75746;SDS011;64363;52.198;21.020;2023-02-11T09:44:43;92.63;;;35.08;;
75746;SDS011;64363;52.198;21.020;2023-02-11T09:49:46;73.47;;;28.52;;
75746;SDS011;64363;52.198;21.020;2023-02-11T09:58:20;84.68;;;35.22;;
75746;SDS011;64363;52.198;21.020;2023-02-11T10:03:36;92.45;;;33.28;;
75746;SDS011;64363;52.198;21.020;2023-02-11T10:17:50;80.22;;;31.77;;
75746;SDS011;64363;52.198;21.020;2023-02-11T10:23:35;93.88;;;35.42;;
75746;SDS011;64363;52.198;21.020;2023-02-11T10:26:09;112.57;;;38.03;;
75746;SDS011;64363;52.198;21.020;2023-02-11T10:28:38;102.63;;;39.75;;
75746;SDS011;64363;52.198;21.020;2023-02-11T10:31:25;116.57;;;38.67;;
75746;SDS011;64363;52.198;21.020;2023-02-11T10:33:59;106.97;;;38.08;;
75746;SDS011;64363;52.198;21.020;2023-02-11T10:36:29;100.25;;;35.97;;
75746;SDS011;64363;52.198;21.020;2023-02-11T10:39:12;102.05;;;35.00;;
75746;SDS011;64363;52.198;21.020;2023-02-11T10:41:52;93.03;;;33.97;;
75746;SDS011;64363;52.198;21.020;2023-02-11T10:44:23;96.25;;;36.75;;
75746;SDS011;64363;52.198;21.020;2023-02-11T10:46:55;90.40;;;35.03;;
75746;SDS011;64363;52.198;21.020;2023-02-11T10:49:59;86.50;;;32.67;;
75746;SDS011;64363;52.198;21.020;2023-02-11T10:52:25;92.57;;;33.22;;
75746;SDS011;64363;52.198;21.020;2023-02-11T10:57:27;96.30;;;34.40;;
75746;SDS011;64363;52.198;21.020;2023-02-11T11:00:01;103.00;;;36.75;;
75746;SDS011;64363;52.198;21.020;2023-02-11T11:02:33;106.90;;;36.45;;
75746;SDS011;64363;52.198;21.020;2023-02-11T11:05:14;87.30;;;33.63;;
75746;SDS011;64363;52.198;21.020;2023-02-11T11:07:50;101.72;;;34.20;;
75746;SDS011;64363;52.198;21.020;2023-02-11T11:10:26;80.72;;;31.33;;
75746;SDS011;64363;52.198;21.020;2023-02-11T11:13:29;91.20;;;34.90;;
75746;SDS011;64363;52.198;21.020;2023-02-11T11:18:41;92.00;;;34.88;;
75746;SDS011;64363;52.198;21.020;2023-02-11T11:21:22;97.82;;;36.00;;
75746;SDS011;64363;52.198;21.020;2023-02-11T11:23:49;102.53;;;35.28;;
75746;SDS011;64363;52.198;21.020;2023-02-11T11:26:15;104.30;;;35.67;;
75746;SDS011;64363;52.198;21.020;2023-02-11T11:31:15;104.80;;;36.92;;
75746;SDS011;64363;52.198;21.020;2023-02-11T11:33:45;112.93;;;38.25;;
75746;SDS011;64363;52.198;21.020;2023-02-11T11:36:13;110.85;;;34.58;;
75746;SDS011;64363;52.198;21.020;2023-02-11T11:38:45;103.82;;;37.83;;
75746;SDS011;64363;52.198;21.020;2023-02-11T11:41:21;108.15;;;37.60;;
75746;SDS011;64363;52.198;21.020;2023-02-11T11:46:24;107.50;;;40.15;;
75746;SDS011;64363;52.198;21.020;2023-02-11T11:49:01;114.57;;;38.55;;
75746;SDS011;64363;52.198;21.020;2023-02-11T11:51:31;105.68;;;37.85;;
75746;SDS011;64363;52.198;21.020;2023-02-11T11:53:59;119.95;;;40.25;;
75746;SDS011;64363;52.198;21.020;2023-02-11T11:56:52;100.90;;;36.25;;
75746;SDS011;64363;52.198;21.020;2023-02-11T11:59:23;110.55;;;40.17;;
75746;SDS011;64363;52.198;21.020;2023-02-11T12:04:32;109.30;;;42.15;;
75746;SDS011;64363;52.198;21.020;2023-02-11T12:07:11;122.82;;;43.25;;
75746;SDS011;64363;52.198;21.020;2023-02-11T12:12:32;116.18;;;43.17;;
75746;SDS011;64363;52.198;21.020;2023-02-11T12:15:10;131.55;;;47.05;;
75746;SDS011;64363;52.198;21.020;2023-02-11T12:25:55;102.47;;;38.00;;
75746;SDS011;64363;52.198;21.020;2023-02-11T12:31:58;115.80;;;41.72;;
75746;SDS011;64363;52.198;21.020;2023-02-11T12:37:41;108.30;;;37.40;;
75746;SDS011;64363;52.198;21.020;2023-02-11T12:43:04;117.38;;;40.75;;
75746;SDS011;64363;52.198;21.020;2023-02-11T12:48:17;111.13;;;41.00;;
75746;SDS011;64363;52.198;21.020;2023-02-11T12:53:35;107.47;;;37.03;;
75746;SDS011;64363;52.198;21.020;2023-02-11T12:58:41;110.40;;;40.42;;
75746;SDS011;64363;52.198;21.020;2023-02-11T13:01:19;107.05;;;40.15;;
75746;SDS011;64363;52.198;21.020;2023-02-11T13:03:54;98.45;;;37.95;;
75746;SDS011;64363;52.198;21.020;2023-02-11T13:06:26;112.35;;;39.22;;
75746;SDS011;64363;52.198;21.020;2023-02-11T13:09:09;101.00;;;40.25;;
75746;SDS011;64363;52.198;21.020;2023-02-11T13:11:44;113.20;;;45.15;;
75746;SDS011;64363;52.198;21.020;2023-02-11T13:16:50;102.25;;;37.50;;
75746;SDS011;64363;52.198;21.020;2023-02-11T13:19:34;102.22;;;38.35;;
75746;SDS011;64363;52.198;21.020;2023-02-11T13:22:11;103.47;;;40.10;;
75746;SDS011;64363;52.198;21.020;2023-02-11T13:24:42;109.82;;;38.10;;
75746;SDS011;64363;52.198;21.020;2023-02-11T13:35:25;112.63;;;39.97;;
75746;SDS011;64363;52.198;21.020;2023-02-11T13:37:57;109.05;;;38.42;;
75746;SDS011;64363;52.198;21.020;2023-02-11T13:40:30;116.13;;;43.60;;
75746;SDS011;64363;52.198;21.020;2023-02-11T13:42:58;121.72;;;48.88;;
75746;SDS011;64363;52.198;21.020;2023-02-11T13:45:29;114.88;;;45.33;;
75746;SDS011;64363;52.198;21.020;2023-02-11T13:47:59;107.15;;;37.33;;
75746;SDS011;64363;52.198;21.020;2023-02-11T13:50:28;114.20;;;40.47;;
75746;SDS011;64363;52.198;21.020;2023-02-11T13:53:00;111.35;;;40.85;;
75746;SDS011;64363;52.198;21.020;2023-02-11T13:55:27;131.35;;;42.25;;
75746;SDS011;64363;52.198;21.020;2023-02-11T14:14:31;120.63;;;44.08;;
75746;SDS011;64363;52.198;21.020;2023-02-11T14:24:49;118.15;;;41.03;;
75746;SDS011;64363;52.198;21.020;2023-02-11T14:27:25;122.15;;;44.83;;
75746;SDS011;64363;52.198;21.020;2023-02-11T14:32:55;115.72;;;40.88;;
75746;SDS011;64363;52.198;21.020;2023-02-11T14:38:33;118.65;;;41.90;;
75746;SDS011;64363;52.198;21.020;2023-02-11T14:41:10;111.75;;;42.05;;
75746;SDS011;64363;52.198;21.020;2023-02-11T14:43:57;113.78;;;46.03;;
75746;SDS011;64363;52.198;21.020;2023-02-11T14:46:25;117.18;;;40.45;;
75746;SDS011;64363;52.198;21.020;2023-02-11T14:48:56;119.40;;;42.72;;
75746;SDS011;64363;52.198;21.020;2023-02-11T14:51:25;110.18;;;46.55;;
75746;SDS011;64363;52.198;21.020;2023-02-11T14:54:17;104.95;;;36.72;;
75746;SDS011;64363;52.198;21.020;2023-02-11T14:56:43;104.00;;;40.13;;
75746;SDS011;64363;52.198;21.020;2023-02-11T14:59:27;103.03;;;39.03;;
75746;SDS011;64363;52.198;21.020;2023-02-11T15:01:52;104.75;;;39.47;;
75746;SDS011;64363;52.198;21.020;2023-02-11T15:06:47;106.38;;;40.15;;
75746;SDS011;64363;52.198;21.020;2023-02-11T15:09:20;112.30;;;39.15;;
75746;SDS011;64363;52.198;21.020;2023-02-11T15:11:52;109.13;;;38.30;;
75746;SDS011;64363;52.198;21.020;2023-02-11T15:16:55;104.32;;;38.03;;
75746;SDS011;64363;52.198;21.020;2023-02-11T15:19:40;92.75;;;36.33;;
75746;SDS011;64363;52.198;21.020;2023-02-11T15:22:24;113.68;;;39.63;;
75746;SDS011;64363;52.198;21.020;2023-02-11T15:32:49;108.35;;;37.05;;
75746;SDS011;64363;52.198;21.020;2023-02-11T15:35:16;99.05;;;38.42;;
75746;SDS011;64363;52.198;21.020;2023-02-11T15:37:43;110.28;;;36.78;;
75746;SDS011;64363;52.198;21.020;2023-02-11T15:40:17;105.35;;;38.63;;
75746;SDS011;64363;52.198;21.020;2023-02-11T15:42:57;99.22;;;39.10;;
75746;SDS011;64363;52.198;21.020;2023-02-11T15:45:32;105.03;;;40.47;;
75746;SDS011;64363;52.198;21.020;2023-02-11T15:48:00;96.97;;;37.25;;
75746;SDS011;64363;52.198;21.020;2023-02-11T15:50:28;99.15;;;35.17;;
75746;SDS011;64363;52.198;21.020;2023-02-11T15:52:57;98.68;;;38.63;;
75746;SDS011;64363;52.198;21.020;2023-02-11T15:55:27;90.97;;;36.72;;
75746;SDS011;64363;52.198;21.020;2023-02-11T15:57:55;101.97;;;34.95;;
75746;SDS011;64363;52.198;21.020;2023-02-11T16:00:23;101.63;;;35.92;;
75746;SDS011;64363;52.198;21.020;2023-02-11T16:02:55;91.30;;;36.65;;
75746;SDS011;64363;52.198;21.020;2023-02-11T16:07:52;90.20;;;36.55;;
75746;SDS011;64363;52.198;21.020;2023-02-11T16:12:51;89.57;;;35.40;;
75746;SDS011;64363;52.198;21.020;2023-02-11T16:15:29;86.30;;;31.13;;
75746;SDS011;64363;52.198;21.020;2023-02-11T16:18:18;94.78;;;33.58;;
75746;SDS011;64363;52.198;21.020;2023-02-11T16:20:51;82.95;;;31.08;;
75746;SDS011;64363;52.198;21.020;2023-02-11T16:23:19;93.18;;;35.72;;
75746;SDS011;64363;52.198;21.020;2023-02-11T16:25:49;84.03;;;29.73;;
75746;SDS011;64363;52.198;21.020;2023-02-11T16:28:19;85.95;;;33.33;;
75746;SDS011;64363;52.198;21.020;2023-02-11T16:30:48;74.68;;;30.95;;
75746;SDS011;64363;52.198;21.020;2023-02-11T16:33:16;86.88;;;32.47;;
75746;SDS011;64363;52.198;21.020;2023-02-11T16:35:42;67.60;;;27.33;;
75746;SDS011;64363;52.198;21.020;2023-02-11T16:38:11;75.22;;;30.67;;
75746;SDS011;64363;52.198;21.020;2023-02-11T16:40:37;75.18;;;28.95;;
75746;SDS011;64363;52.198;21.020;2023-02-11T16:43:03;80.43;;;32.58;;
75746;SDS011;64363;52.198;21.020;2023-02-11T16:45:29;72.18;;;32.38;;
75746;SDS011;64363;52.198;21.020;2023-02-11T16:47:56;80.57;;;33.38;;
75746;SDS011;64363;52.198;21.020;2023-02-11T16:50:23;81.88;;;31.65;;
75746;SDS011;64363;52.198;21.020;2023-02-11T16:52:50;74.65;;;29.67;;
75746;SDS011;64363;52.198;21.020;2023-02-11T16:55:17;70.55;;;30.08;;
75746;SDS011;64363;52.198;21.020;2023-02-11T16:57:43;72.78;;;29.50;;
75746;SDS011;64363;52.198;21.020;2023-02-11T17:00:09;78.93;;;29.67;;
75746;SDS011;64363;52.198;21.020;2023-02-11T17:02:36;85.03;;;32.30;;
75746;SDS011;64363;52.198;21.020;2023-02-11T17:05:04;73.03;;;29.80;;
75746;SDS011;64363;52.198;21.020;2023-02-11T17:07:32;76.78;;;30.23;;
75746;SDS011;64363;52.198;21.020;2023-02-11T17:09:58;74.50;;;29.92;;
75746;SDS011;64363;52.198;21.020;2023-02-11T17:12:24;70.13;;;30.60;;
75746;SDS011;64363;52.198;21.020;2023-02-11T17:14:51;78.90;;;32.80;;
75746;SDS011;64363;52.198;21.020;2023-02-11T17:17:17;68.57;;;28.20;;
75746;SDS011;64363;52.198;21.020;2023-02-11T17:19:43;68.22;;;28.45;;
75746;SDS011;64363;52.198;21.020;2023-02-11T17:22:09;78.50;;;30.02;;
75746;SDS011;64363;52.198;21.020;2023-02-11T17:24:36;73.03;;;29.80;;
75746;SDS011;64363;52.198;21.020;2023-02-11T17:27:02;72.22;;;28.88;;
75746;SDS011;64363;52.198;21.020;2023-02-11T17:29:28;62.28;;;26.90;;
75746;SDS011;64363;52.198;21.020;2023-02-11T17:31:56;71.47;;;28.88;;
75746;SDS011;64363;52.198;21.020;2023-02-11T17:34:22;70.22;;;26.92;;
75746;SDS011;64363;52.198;21.020;2023-02-11T17:36:48;72.38;;;27.85;;
75746;SDS011;64363;52.198;21.020;2023-02-11T17:39:15;68.75;;;25.60;;
75746;SDS011;64363;52.198;21.020;2023-02-11T17:41:40;69.28;;;25.67;;
75746;SDS011;64363;52.198;21.020;2023-02-11T17:44:07;67.97;;;25.35;;
75746;SDS011;64363;52.198;21.020;2023-02-11T17:46:35;68.20;;;27.27;;
75746;SDS011;64363;52.198;21.020;2023-02-11T17:49:01;65.00;;;28.70;;
75746;SDS011;64363;52.198;21.020;2023-02-11T17:51:32;64.07;;;28.00;;
75746;SDS011;64363;52.198;21.020;2023-02-11T17:54:03;62.13;;;25.27;;
75746;SDS011;64363;52.198;21.020;2023-02-11T17:58:57;67.75;;;26.42;;
75746;SDS011;64363;52.198;21.020;2023-02-11T18:01:26;65.18;;;26.95;;
75746;SDS011;64363;52.198;21.020;2023-02-11T18:03:56;61.13;;;26.35;;
75746;SDS011;64363;52.198;21.020;2023-02-11T18:06:22;64.97;;;28.15;;
75746;SDS011;64363;52.198;21.020;2023-02-11T18:08:49;57.60;;;25.48;;
75746;SDS011;64363;52.198;21.020;2023-02-11T18:11:15;67.05;;;27.65;;
75746;SDS011;64363;52.198;21.020;2023-02-11T18:13:42;58.35;;;24.38;;
75746;SDS011;64363;52.198;21.020;2023-02-11T18:16:10;60.95;;;25.70;;
75746;SDS011;64363;52.198;21.020;2023-02-11T18:18:43;62.05;;;27.13;;
75746;SDS011;64363;52.198;21.020;2023-02-11T18:21:16;68.32;;;28.17;;
75746;SDS011;64363;52.198;21.020;2023-02-11T18:23:44;64.30;;;26.15;;
75746;SDS011;64363;52.198;21.020;2023-02-11T18:26:11;61.03;;;25.55;;
75746;SDS011;64363;52.198;21.020;2023-02-11T18:28:38;65.07;;;25.35;;
75746;SDS011;64363;52.198;21.020;2023-02-11T18:31:04;60.72;;;25.85;;
75746;SDS011;64363;52.198;21.020;2023-02-11T18:33:32;65.30;;;25.83;;
75746;SDS011;64363;52.198;21.020;2023-02-11T18:35:57;62.42;;;25.30;;
75746;SDS011;64363;52.198;21.020;2023-02-11T18:38:23;54.65;;;24.05;;
75746;SDS011;64363;52.198;21.020;2023-02-11T18:40:49;64.82;;;25.92;;
75746;SDS011;64363;52.198;21.020;2023-02-11T18:43:17;59.60;;;24.45;;
75746;SDS011;64363;52.198;21.020;2023-02-11T18:45:44;61.42;;;25.95;;
75746;SDS011;64363;52.198;21.020;2023-02-11T18:48:11;63.80;;;27.13;;
75746;SDS011;64363;52.198;21.020;2023-02-11T18:50:41;57.40;;;24.98;;
75746;SDS011;64363;52.198;21.020;2023-02-11T18:53:10;60.55;;;24.85;;
75746;SDS011;64363;52.198;21.020;2023-02-11T18:55:40;65.25;;;26.75;;
75746;SDS011;64363;52.198;21.020;2023-02-11T18:58:07;63.17;;;25.65;;
75746;SDS011;64363;52.198;21.020;2023-02-11T19:00:33;52.60;;;23.05;;
75746;SDS011;64363;52.198;21.020;2023-02-11T19:03:01;60.33;;;23.88;;
75746;SDS011;64363;52.198;21.020;2023-02-11T19:05:27;58.55;;;24.63;;
75746;SDS011;64363;52.198;21.020;2023-02-11T19:08:00;54.10;;;22.38;;
75746;SDS011;64363;52.198;21.020;2023-02-11T19:10:26;59.47;;;24.23;;
75746;SDS011;64363;52.198;21.020;2023-02-11T19:12:53;53.92;;;22.15;;
75746;SDS011;64363;52.198;21.020;2023-02-11T19:15:21;44.15;;;21.25;;
75746;SDS011;64363;52.198;21.020;2023-02-11T19:17:47;44.55;;;20.67;;
75746;SDS011;64363;52.198;21.020;2023-02-11T19:20:13;48.75;;;19.63;;
75746;SDS011;64363;52.198;21.020;2023-02-11T19:22:39;43.70;;;17.92;;
75746;SDS011;64363;52.198;21.020;2023-02-11T19:25:05;39.15;;;17.20;;
75746;SDS011;64363;52.198;21.020;2023-02-11T19:27:31;40.60;;;16.42;;
75746;SDS011;64363;52.198;21.020;2023-02-11T19:29:57;39.63;;;17.95;;
75746;SDS011;64363;52.198;21.020;2023-02-11T19:32:23;31.63;;;14.07;;
75746;SDS011;64363;52.198;21.020;2023-02-11T19:34:49;37.78;;;15.27;;
75746;SDS011;64363;52.198;21.020;2023-02-11T19:37:16;40.90;;;16.73;;
75746;SDS011;64363;52.198;21.020;2023-02-11T19:39:42;28.48;;;13.82;;
75746;SDS011;64363;52.198;21.020;2023-02-11T19:42:08;31.70;;;16.27;;
75746;SDS011;64363;52.198;21.020;2023-02-11T19:44:34;38.08;;;15.40;;
75746;SDS011;64363;52.198;21.020;2023-02-11T19:47:00;41.03;;;15.25;;
75746;SDS011;64363;52.198;21.020;2023-02-11T19:49:26;31.73;;;14.05;;
75746;SDS011;64363;52.198;21.020;2023-02-11T19:51:53;39.05;;;14.18;;
75746;SDS011;64363;52.198;21.020;2023-02-11T19:54:20;32.67;;;14.13;;
75746;SDS011;64363;52.198;21.020;2023-02-11T19:56:46;32.35;;;14.18;;
75746;SDS011;64363;52.198;21.020;2023-02-11T19:59:13;34.88;;;15.02;;
75746;SDS011;64363;52.198;21.020;2023-02-11T20:01:40;29.98;;;13.75;;
75746;SDS011;64363;52.198;21.020;2023-02-11T20:04:06;34.92;;;13.52;;
75746;SDS011;64363;52.198;21.020;2023-02-11T20:06:33;29.77;;;13.55;;
75746;SDS011;64363;52.198;21.020;2023-02-11T20:09:06;30.85;;;13.57;;
75746;SDS011;64363;52.198;21.020;2023-02-11T20:11:34;32.38;;;12.70;;
75746;SDS011;64363;52.198;21.020;2023-02-11T20:14:01;29.17;;;14.95;;
75746;SDS011;64363;52.198;21.020;2023-02-11T20:16:29;31.58;;;13.52;;
75746;SDS011;64363;52.198;21.020;2023-02-11T20:18:56;32.55;;;13.77;;
75746;SDS011;64363;52.198;21.020;2023-02-11T20:21:23;29.70;;;13.70;;
75746;SDS011;64363;52.198;21.020;2023-02-11T20:23:51;31.50;;;13.80;;
75746;SDS011;64363;52.198;21.020;2023-02-11T20:26:18;28.73;;;12.75;;
75746;SDS011;64363;52.198;21.020;2023-02-11T20:28:46;34.75;;;12.35;;
75746;SDS011;64363;52.198;21.020;2023-02-11T20:31:13;32.63;;;12.00;;
75746;SDS011;64363;52.198;21.020;2023-02-11T20:33:41;31.75;;;12.80;;
75746;SDS011;64363;52.198;21.020;2023-02-11T20:36:15;28.30;;;12.85;;
75746;SDS011;64363;52.198;21.020;2023-02-11T20:38:45;27.15;;;12.10;;
75746;SDS011;64363;52.198;21.020;2023-02-11T20:41:15;30.95;;;13.45;;
75746;SDS011;64363;52.198;21.020;2023-02-11T20:43:44;29.77;;;13.10;;
75746;SDS011;64363;52.198;21.020;2023-02-11T20:46:13;27.17;;;13.30;;
75746;SDS011;64363;52.198;21.020;2023-02-11T20:48:40;34.40;;;12.00;;
75746;SDS011;64363;52.198;21.020;2023-02-11T20:51:11;32.00;;;12.63;;
75746;SDS011;64363;52.198;21.020;2023-02-11T20:53:40;32.13;;;12.68;;
75746;SDS011;64363;52.198;21.020;2023-02-11T20:56:09;28.27;;;13.57;;
75746;SDS011;64363;52.198;21.020;2023-02-11T20:58:36;33.78;;;13.23;;
75746;SDS011;64363;52.198;21.020;2023-02-11T21:01:09;32.45;;;14.30;;
75746;SDS011;64363;52.198;21.020;2023-02-11T21:03:42;32.85;;;13.93;;
75746;SDS011;64363;52.198;21.020;2023-02-11T21:06:13;25.98;;;12.93;;
75746;SDS011;64363;52.198;21.020;2023-02-11T21:08:39;27.83;;;11.93;;
75746;SDS011;64363;52.198;21.020;2023-02-11T21:11:05;28.42;;;12.73;;
75746;SDS011;64363;52.198;21.020;2023-02-11T21:13:33;31.77;;;12.63;;
75746;SDS011;64363;52.198;21.020;2023-02-11T21:16:03;30.42;;;13.00;;
75746;SDS011;64363;52.198;21.020;2023-02-11T21:18:29;26.00;;;11.90;;
75746;SDS011;64363;52.198;21.020;2023-02-11T21:20:56;22.30;;;11.38;;
75746;SDS011;64363;52.198;21.020;2023-02-11T21:23:22;25.98;;;13.45;;
75746;SDS011;64363;52.198;21.020;2023-02-11T21:25:49;27.67;;;11.63;;
75746;SDS011;64363;52.198;21.020;2023-02-11T21:28:16;31.50;;;12.90;;
75746;SDS011;64363;52.198;21.020;2023-02-11T21:30:43;20.60;;;8.60;;
75746;SDS011;64363;52.198;21.020;2023-02-11T21:33:09;15.10;;;7.88;;
75746;SDS011;64363;52.198;21.020;2023-02-11T21:35:35;18.15;;;8.07;;
75746;SDS011;64363;52.198;21.020;2023-02-11T21:38:02;12.70;;;6.18;;
75746;SDS011;64363;52.198;21.020;2023-02-11T21:40:28;11.23;;;5.18;;
75746;SDS011;64363;52.198;21.020;2023-02-11T21:42:54;10.80;;;4.70;;
75746;SDS011;64363;52.198;21.020;2023-02-11T21:45:21;12.55;;;4.28;;
75746;SDS011;64363;52.198;21.020;2023-02-11T21:47:48;8.98;;;3.45;;
75746;SDS011;64363;52.198;21.020;2023-02-11T21:50:15;8.15;;;3.40;;
75746;SDS011;64363;52.198;21.020;2023-02-11T21:52:41;6.60;;;3.38;;
75746;SDS011;64363;52.198;21.020;2023-02-11T21:55:07;8.95;;;3.65;;
75746;SDS011;64363;52.198;21.020;2023-02-11T21:57:33;7.85;;;3.47;;
75746;SDS011;64363;52.198;21.020;2023-02-11T21:59:59;6.95;;;3.67;;
75746;SDS011;64363;52.198;21.020;2023-02-11T22:02:24;8.82;;;4.32;;
75746;SDS011;64363;52.198;21.020;2023-02-11T22:04:50;10.00;;;3.80;;
75746;SDS011;64363;52.198;21.020;2023-02-11T22:07:16;10.57;;;3.42;;
75746;SDS011;64363;52.198;21.020;2023-02-11T22:09:45;8.45;;;3.15;;
75746;SDS011;64363;52.198;21.020;2023-02-11T22:12:10;8.20;;;2.90;;
75746;SDS011;64363;52.198;21.020;2023-02-11T22:14:37;4.03;;;2.58;;
75746;SDS011;64363;52.198;21.020;2023-02-11T22:17:02;9.52;;;2.63;;
75746;SDS011;64363;52.198;21.020;2023-02-11T22:19:29;7.90;;;3.30;;
75746;SDS011;64363;52.198;21.020;2023-02-11T22:21:57;5.72;;;3.00;;
75746;SDS011;64363;52.198;21.020;2023-02-11T22:24:23;10.27;;;3.72;;
75746;SDS011;64363;52.198;21.020;2023-02-11T22:26:49;7.45;;;3.20;;
75746;SDS011;64363;52.198;21.020;2023-02-11T22:29:15;9.63;;;3.63;;
75746;SDS011;64363;52.198;21.020;2023-02-11T22:31:41;11.73;;;3.55;;
75746;SDS011;64363;52.198;21.020;2023-02-11T22:34:07;9.73;;;4.18;;
75746;SDS011;64363;52.198;21.020;2023-02-11T22:36:33;6.82;;;4.05;;
75746;SDS011;64363;52.198;21.020;2023-02-11T22:39:03;11.32;;;4.95;;
75746;SDS011;64363;52.198;21.020;2023-02-11T22:41:30;8.73;;;3.95;;
75746;SDS011;64363;52.198;21.020;2023-02-11T22:43:56;6.38;;;3.05;;
75746;SDS011;64363;52.198;21.020;2023-02-11T22:46:22;7.70;;;2.78;;
75746;SDS011;64363;52.198;21.020;2023-02-11T22:48:48;6.65;;;2.92;;
75746;SDS011;64363;52.198;21.020;2023-02-11T22:51:15;5.88;;;2.83;;
75746;SDS011;64363;52.198;21.020;2023-02-11T22:53:47;9.15;;;2.55;;
75746;SDS011;64363;52.198;21.020;2023-02-11T22:56:23;8.20;;;2.53;;
75746;SDS011;64363;52.198;21.020;2023-02-11T22:58:49;6.50;;;2.90;;
75746;SDS011;64363;52.198;21.020;2023-02-11T23:01:16;7.30;;;2.95;;
75746;SDS011;64363;52.198;21.020;2023-02-11T23:03:42;6.47;;;2.35;;
75746;SDS011;64363;52.198;21.020;2023-02-11T23:06:08;5.07;;;2.25;;
75746;SDS011;64363;52.198;21.020;2023-02-11T23:08:36;3.45;;;1.85;;
75746;SDS011;64363;52.198;21.020;2023-02-11T23:11:04;3.60;;;1.95;;
75746;SDS011;64363;52.198;21.020;2023-02-11T23:13:32;4.20;;;2.40;;
75746;SDS011;64363;52.198;21.020;2023-02-11T23:16:01;7.18;;;2.35;;
75746;SDS011;64363;52.198;21.020;2023-02-11T23:18:29;3.95;;;2.30;;
75746;SDS011;64363;52.198;21.020;2023-02-11T23:20:55;3.75;;;2.03;;
75746;SDS011;64363;52.198;21.020;2023-02-11T23:23:26;5.38;;;2.15;;
75746;SDS011;64363;52.198;21.020;2023-02-11T23:25:52;4.15;;;1.90;;
75746;SDS011;64363;52.198;21.020;2023-02-11T23:28:17;4.75;;;1.50;;
75746;SDS011;64363;52.198;21.020;2023-02-11T23:30:43;3.75;;;1.80;;
75746;SDS011;64363;52.198;21.020;2023-02-11T23:33:09;5.05;;;1.92;;
75746;SDS011;64363;52.198;21.020;2023-02-11T23:35:34;4.57;;;1.45;;
75746;SDS011;64363;52.198;21.020;2023-02-11T23:38:01;5.90;;;1.73;;
75746;SDS011;64363;52.198;21.020;2023-02-11T23:40:26;5.50;;;1.70;;
75746;SDS011;64363;52.198;21.020;2023-02-11T23:42:52;5.70;;;2.25;;
75746;SDS011;64363;52.198;21.020;2023-02-11T23:45:18;4.15;;;1.70;;
75746;SDS011;64363;52.198;21.020;2023-02-11T23:47:44;4.35;;;1.80;;
75746;SDS011;64363;52.198;21.020;2023-02-11T23:50:10;4.55;;;1.77;;
75746;SDS011;64363;52.198;21.020;2023-02-11T23:52:36;4.05;;;1.77;;
75746;SDS011;64363;52.198;21.020;2023-02-11T23:55:02;8.05;;;2.03;;
75746;SDS011;64363;52.198;21.020;2023-02-11T23:57:30;3.97;;;1.70;;
75746;SDS011;64363;52.198;21.020;2023-02-11T23:59:56;4.90;;;1.92;;
